createdAt,value
2019-04-18T00:01:49.499Z,100389.05
2019-04-18T00:04:58.254Z,100391.19
2019-04-18T00:07:48.195Z,100388.62
2019-04-18T00:10:38.083Z,100392.13
2019-04-18T00:13:28.753Z,100396.40
2019-04-18T00:16:10.893Z,100392.99
2019-04-18T00:19:00.692Z,100391.27
2019-04-18T00:21:52.714Z,100395.12
2019-04-18T00:24:34.364Z,100389.16
2019-04-18T00:27:16.905Z,100393.42
2019-04-18T00:29:48.962Z,100390.86
2019-04-18T00:32:38.878Z,100396.39
2019-04-18T00:35:28.695Z,100397.68
2019-04-18T00:38:18.474Z,100396.82
2019-04-18T00:41:08.291Z,100392.13
2019-04-18T00:44:01.072Z,100392.13
2019-04-18T00:46:41.530Z,100397.62
2019-04-18T00:49:33.597Z,100391.24
2019-04-18T00:52:16.928Z,100395.97
2019-04-18T00:55:00.865Z,100396.39
2019-04-18T00:57:46.519Z,100392.98
2019-04-18T01:03:53.547Z,100398.94
2019-04-18T01:06:28.155Z,100397.68
2019-04-18T01:09:17.954Z,100399.83
2019-04-18T01:11:48.439Z,100402.42
2019-04-18T01:14:38.258Z,100404.99
2019-04-18T01:17:28.071Z,100402.89
2019-04-18T01:20:17.981Z,100397.35
2019-04-18T01:23:07.799Z,100401.20
2019-04-18T01:25:58.039Z,100405.89
2019-04-18T01:28:35.334Z,100403.35
2019-04-18T01:31:07.361Z,100403.77
2019-04-18T01:33:57.257Z,100405.94
2019-04-18T01:36:47.072Z,100408.08
2019-04-18T01:39:17.535Z,100403.83
2019-04-18T01:42:29.497Z,100410.23
2019-04-18T01:48:10.112Z,100411.92
2019-04-18T01:50:40.593Z,100407.60
2019-04-18T01:53:32.756Z,100411.03
2019-04-18T01:56:13.446Z,100407.63
2019-04-18T01:58:43.853Z,100409.34
2019-04-18T02:01:33.622Z,100410.17
2019-04-18T02:04:23.542Z,100413.61
2019-04-18T02:06:54.054Z,100410.24
2019-04-18T02:09:44.002Z,100411.09
2019-04-18T02:12:33.828Z,100405.16
2019-04-18T02:15:23.639Z,100403.45
2019-04-18T02:18:13.438Z,100402.16
2019-04-18T02:21:06.919Z,100403.88
2019-04-18T02:23:47.163Z,100405.56
2019-04-18T02:26:17.664Z,100404.28
2019-04-18T02:29:09.681Z,100409.00
2019-04-18T02:31:50.884Z,100405.58
2019-04-18T02:34:40.675Z,100406.87
2019-04-18T02:37:30.467Z,100406.42
2019-04-18T02:40:20.336Z,100412.80
2019-04-18T02:43:10.235Z,100413.64
2019-04-18T02:46:00.450Z,100417.91
2019-04-18T02:48:44.121Z,100419.62
2019-04-18T02:51:33.966Z,100414.92
2019-04-18T02:54:23.767Z,100415.32
2019-04-18T02:57:13.631Z,100415.31
2019-04-18T03:00:22.915Z,100415.71
2019-04-18T03:03:13.174Z,100414.78
2019-04-18T03:05:49.806Z,100424.53
2019-04-18T03:08:39.626Z,100420.23
2019-04-18T03:11:29.507Z,100422.81
2019-04-18T03:14:19.298Z,100422.36
2019-04-18T03:16:49.713Z,100418.45
2019-04-18T03:19:42.436Z,100413.75
2019-04-18T03:22:17.134Z,100419.30
2019-04-18T03:27:53.142Z,100423.03
2019-04-18T03:30:42.907Z,100424.34
2019-04-18T03:33:32.728Z,100423.97
2019-04-18T03:36:22.540Z,100429.81
2019-04-18T03:42:08.396Z,100433.47
2019-04-18T03:45:21.596Z,100436.83
2019-04-18T03:50:50.510Z,100436.77
2019-04-18T03:53:23.099Z,100442.68
2019-04-18T03:56:12.879Z,100435.81
2019-04-18T03:59:03.002Z,100441.27
2019-04-18T04:01:45.723Z,100445.91
2019-04-18T04:04:35.521Z,100445.98
2019-04-18T04:07:25.707Z,100449.84
2019-04-18T04:13:12.589Z,100454.98
2019-04-18T04:16:02.350Z,100451.97
2019-04-18T04:18:56.058Z,100457.91
2019-04-18T04:21:45.854Z,100463.80
2019-04-18T04:24:35.780Z,100462.97
2019-04-18T04:27:25.542Z,100466.35
2019-04-18T04:30:15.973Z,100468.96
2019-04-18T04:33:06.849Z,100470.67
2019-04-18T04:36:01.069Z,100472.88
2019-04-18T04:38:39.698Z,100473.31
2019-04-18T04:41:32.454Z,100477.66
2019-04-18T04:44:30.488Z,100481.95
2019-04-18T04:47:53.273Z,100491.42
2019-04-18T04:51:21.349Z,100495.33
2019-04-18T04:53:57.097Z,100497.92
2019-04-18T04:57:06.005Z,100504.32
2019-04-18T05:00:14.809Z,100509.89
2019-04-18T05:03:04.627Z,100508.66
2019-04-18T05:05:54.439Z,100517.30
2019-04-18T05:08:44.214Z,100514.33
2019-04-18T05:11:34.150Z,100515.67
2019-04-18T05:14:23.922Z,100520.84
2019-04-18T05:17:13.731Z,100528.16
2019-04-18T05:20:03.519Z,100530.75
2019-04-18T05:22:54.560Z,100527.44
2019-04-18T05:25:36.340Z,100534.70
2019-04-18T05:28:26.150Z,100532.16
2019-04-18T05:31:18.708Z,100538.13
2019-04-18T05:33:59.304Z,100540.34
2019-04-18T05:37:01.160Z,100540.75
2019-04-18T05:39:32.324Z,100539.92
2019-04-18T05:42:02.761Z,100539.48
2019-04-18T05:44:52.653Z,100536.92
2019-04-18T05:48:01.322Z,100539.89
2019-04-18T05:53:45.691Z,100545.44
2019-04-18T05:56:16.783Z,100544.12
2019-04-18T05:59:25.443Z,100540.27
2019-04-18T06:02:34.114Z,100545.84
2019-04-18T06:05:42.791Z,100548.77
2019-04-18T06:08:32.675Z,100546.61
2019-04-18T06:11:41.358Z,100551.28
2019-04-18T06:14:50.033Z,100555.55
2019-04-18T06:17:58.685Z,100559.31
2019-04-18T06:20:48.496Z,100562.72
2019-04-18T06:26:20.416Z,100569.93
2019-04-18T06:29:29.038Z,100564.76
2019-04-18T06:35:14.682Z,100571.48
2019-04-18T06:37:54.033Z,100575.72
2019-04-18T06:40:43.864Z,100579.09
2019-04-18T06:43:33.631Z,100584.14
2019-04-18T06:46:23.753Z,100572.08
2019-04-18T06:52:12.246Z,100581.36
2019-04-18T06:55:03.071Z,100581.64
2019-04-18T06:57:39.632Z,100585.42
2019-04-18T07:06:00.243Z,100582.11
2019-04-18T07:08:45.594Z,100588.11
2019-04-18T07:11:37.065Z,100585.87
2019-04-18T07:14:14.042Z,100586.47
2019-04-18T07:17:07.723Z,100589.93
2019-04-18T07:20:07.518Z,100588.58
2019-04-18T07:22:48.237Z,100597.41
2019-04-18T07:25:38.060Z,100597.41
2019-04-18T07:28:28.032Z,100607.02
2019-04-18T07:30:58.432Z,100606.63
2019-04-18T07:33:48.273Z,100604.95
2019-04-18T07:36:38.993Z,100612.97
2019-04-18T07:42:04.508Z,100613.58
2019-04-18T07:44:54.349Z,100611.73
2019-04-18T07:48:03.057Z,100609.05
2019-04-18T07:50:52.934Z,100605.44
2019-04-18T07:53:42.831Z,100612.50
2019-04-18T07:56:38.197Z,100614.84
2019-04-18T07:59:19.149Z,100616.55
2019-04-18T08:01:57.922Z,100617.64
2019-04-18T08:04:38.413Z,100615.34
2019-04-18T08:07:28.232Z,100620.28
2019-04-18T08:09:58.768Z,100620.10
2019-04-18T08:12:29.365Z,100622.29
2019-04-18T08:18:26.555Z,100627.83
2019-04-18T08:21:12.961Z,100633.30
2019-04-18T08:23:43.483Z,100636.53
2019-04-18T08:26:33.322Z,100634.63
2019-04-18T08:29:27.828Z,100631.61
2019-04-18T08:32:16.211Z,100631.28
2019-04-18T08:34:58.521Z,100625.34
2019-04-18T08:37:53.651Z,100635.67
2019-04-18T08:40:52.933Z,100630.88
2019-04-18T08:43:46.759Z,100623.37
2019-04-18T08:52:21.780Z,100623.56
2019-04-18T08:55:30.552Z,100616.61
2019-04-18T08:58:20.353Z,100624.19
2019-04-18T09:01:10.169Z,100618.75
2019-04-18T09:03:59.980Z,100610.20
2019-04-18T09:06:52.242Z,100611.73
2019-04-18T09:09:34.373Z,100608.85
2019-04-18T09:12:25.409Z,100613.09
2019-04-18T09:15:08.825Z,100619.57
2019-04-18T09:17:50.476Z,100617.92
2019-04-18T09:20:40.258Z,100623.75
2019-04-18T09:23:12.833Z,100617.67
2019-04-18T09:25:55.464Z,100616.84
2019-04-18T09:28:28.234Z,100611.82
2019-04-18T09:31:17.852Z,100615.56
2019-04-18T09:34:00.865Z,100606.10
2019-04-18T09:36:50.670Z,100606.09
2019-04-18T09:39:21.119Z,100609.32
2019-04-18T09:42:11.037Z,100609.60
2019-04-18T09:45:00.846Z,100612.57
2019-04-18T09:47:31.251Z,100607.22
2019-04-18T09:50:21.148Z,100602.03
2019-04-18T09:53:11.207Z,100606.16
2019-04-18T09:56:00.998Z,100609.63
2019-04-18T09:58:50.846Z,100608.16
2019-04-18T10:01:40.594Z,100607.89
2019-04-18T10:04:30.439Z,100606.54
2019-04-18T10:07:20.219Z,100608.31
2019-04-18T10:13:12.979Z,100598.98
2019-04-18T10:16:06.121Z,100601.23
2019-04-18T10:18:45.842Z,100596.50
2019-04-18T10:21:40.133Z,100599.77
2019-04-18T10:24:34.760Z,100593.83
2019-04-18T10:27:36.958Z,100596.14
2019-04-18T10:33:11.141Z,100596.37
2019-04-18T10:36:00.943Z,100595.52
2019-04-18T10:38:31.360Z,100591.27
2019-04-18T10:41:21.195Z,100590.61
2019-04-18T10:44:11.236Z,100594.41
2019-04-18T10:47:00.984Z,100589.73
2019-04-18T10:49:50.786Z,100590.41
2019-04-18T10:52:40.568Z,100587.31
2019-04-18T10:55:30.366Z,100590.80
2019-04-18T10:58:20.161Z,100591.51
2019-04-18T11:01:13.176Z,100587.53
2019-04-18T11:04:13.629Z,100582.97
2019-04-18T11:06:39.039Z,100580.96
2019-04-18T11:09:28.847Z,100580.53
2019-04-18T11:11:59.287Z,100587.30
2019-04-18T11:14:49.052Z,100595.64
2019-04-18T11:17:38.860Z,100585.28
2019-04-18T11:20:28.646Z,100584.20
2019-04-18T11:23:18.849Z,100587.73
2019-04-18T11:26:09.939Z,100581.81
2019-04-18T11:28:59.782Z,100576.14
2019-04-18T11:31:49.580Z,100575.05
2019-04-18T11:34:39.478Z,100578.94
2019-04-18T11:37:29.235Z,100577.92
2019-04-18T11:40:19.064Z,100576.63
2019-04-18T11:43:09.094Z,100571.09
2019-04-18T11:45:51.934Z,100569.66
2019-04-18T11:48:41.717Z,100567.98
2019-04-18T11:51:31.534Z,100566.70
2019-04-18T11:54:21.316Z,100570.88
2019-04-18T11:57:11.155Z,100576.69
2019-04-18T12:02:46.972Z,100567.61
2019-04-18T12:05:36.852Z,100569.30
2019-04-18T12:08:26.666Z,100567.98
2019-04-18T12:11:16.478Z,100567.66
2019-04-18T12:14:06.390Z,100565.34
2019-04-18T12:16:56.164Z,100565.53
2019-04-18T12:19:26.565Z,100566.85
2019-04-18T12:22:16.365Z,100564.41
2019-04-18T12:25:10.447Z,100559.55
2019-04-18T12:27:59.066Z,100549.05
2019-04-18T12:30:40.203Z,100544.98
2019-04-18T12:33:30.016Z,100545.63
2019-04-18T12:36:19.784Z,100548.55
2019-04-18T12:39:10.220Z,100546.29
2019-04-18T12:41:41.722Z,100538.72
2019-04-18T12:44:31.713Z,100544.38
2019-04-18T12:47:21.772Z,100537.66
2019-04-18T12:50:11.809Z,100533.77
2019-04-18T12:53:01.686Z,100530.00
2019-04-18T12:55:51.494Z,100524.53
2019-04-18T12:58:41.352Z,100529.45
2019-04-18T13:01:45.728Z,100526.02
2019-04-18T13:10:14.545Z,100526.91
2019-04-18T13:16:23.110Z,100535.44
2019-04-18T13:21:57.948Z,100522.84
2019-04-18T13:24:34.474Z,100528.69
2019-04-18T13:27:24.278Z,100523.69
2019-04-18T13:33:16.899Z,100523.49
2019-04-18T13:36:07.420Z,100519.26
2019-04-18T13:38:50.399Z,100521.17
2019-04-18T13:41:40.263Z,100513.58
2019-04-18T13:44:30.053Z,100512.65
2019-04-18T13:47:19.848Z,100506.77
2019-04-18T13:50:10.014Z,100509.40
2019-04-18T13:53:00.296Z,100510.89
2019-04-18T13:55:51.265Z,100509.34
2019-04-18T13:58:41.091Z,100511.00
2019-04-18T14:01:30.943Z,100505.17
2019-04-18T14:04:20.203Z,100507.66
2019-04-18T14:07:10.296Z,100505.88
2019-04-18T14:10:00.144Z,100512.81
2019-04-18T14:12:49.956Z,100511.19
2019-04-18T14:15:40.761Z,100521.05
2019-04-18T14:18:31.294Z,100522.30
2019-04-18T14:21:21.129Z,100511.69
2019-04-18T14:24:10.961Z,100519.41
2019-04-18T14:27:00.705Z,100523.92
2019-04-18T14:29:50.479Z,100522.83
2019-04-18T14:32:40.255Z,100519.09
2019-04-18T14:35:29.998Z,100521.75
2019-04-18T14:38:19.813Z,100527.69
2019-04-18T14:41:09.585Z,100524.82
2019-04-18T14:43:59.977Z,100528.23
2019-04-18T14:46:50.870Z,100527.45
2019-04-18T14:49:40.692Z,100527.16
2019-04-18T14:52:30.483Z,100523.27
2019-04-18T14:55:00.884Z,100532.33
2019-04-18T14:57:54.163Z,100524.17
2019-04-18T15:00:43.053Z,100531.38
2019-04-18T15:03:17.678Z,100534.27
2019-04-18T15:06:08.038Z,100535.13
2019-04-18T15:08:50.561Z,100538.45
2019-04-18T15:11:40.420Z,100534.27
2019-04-18T15:14:30.347Z,100535.21
2019-04-18T15:17:20.123Z,100533.90
2019-04-18T15:23:12.502Z,100529.41
2019-04-18T15:29:23.906Z,100535.50
2019-04-18T15:32:14.025Z,100538.78
2019-04-18T15:34:44.465Z,100545.09
2019-04-18T15:37:34.277Z,100543.33
2019-04-18T15:43:26.235Z,100542.11
2019-04-18T15:46:15.466Z,100547.42
2019-04-18T15:51:48.522Z,100544.70
2019-04-18T15:54:25.847Z,100544.28
2019-04-18T15:57:16.587Z,100549.20
2019-04-18T16:03:20.220Z,100541.20
2019-04-18T16:06:01.102Z,100545.20
2019-04-18T16:08:50.873Z,100543.91
2019-04-18T16:11:41.080Z,100535.37
2019-04-18T16:15:03.716Z,100538.34
2019-04-18T16:17:53.515Z,100535.95
2019-04-18T16:20:43.316Z,100539.34
2019-04-18T16:23:33.134Z,100545.55
2019-04-18T16:26:03.534Z,100544.11
2019-04-18T16:28:33.987Z,100542.48
2019-04-18T16:31:05.086Z,100547.48
2019-04-18T16:33:55.953Z,100549.75
2019-04-18T16:36:26.414Z,100556.75
2019-04-18T16:38:56.848Z,100545.61
2019-04-18T16:41:46.644Z,100549.66
2019-04-18T16:44:36.452Z,100546.05
2019-04-18T16:47:26.512Z,100545.66
2019-04-18T16:50:35.322Z,100540.78
2019-04-18T16:56:29.999Z,100543.52
2019-04-18T16:59:19.781Z,100548.94
2019-04-18T17:02:09.673Z,100549.16
2019-04-18T17:04:59.433Z,100552.13
2019-04-18T17:07:49.315Z,100551.21
2019-04-18T17:10:39.087Z,100557.95
2019-04-18T17:13:28.915Z,100559.88
2019-04-18T17:15:59.300Z,100556.06
2019-04-18T17:18:49.127Z,100560.80
2019-04-18T17:21:38.894Z,100562.74
2019-04-18T17:24:28.748Z,100572.70
2019-04-18T17:27:19.078Z,100565.83
2019-04-18T17:30:08.996Z,100565.34
2019-04-18T17:32:58.775Z,100566.73
2019-04-18T17:35:57.031Z,100568.78
2019-04-18T17:38:52.515Z,100570.57
2019-04-18T17:41:22.565Z,100573.77
2019-04-18T17:44:05.499Z,100576.03
2019-04-18T17:46:45.873Z,100577.52
2019-04-18T17:49:36.011Z,100583.67
2019-04-18T17:52:33.631Z,100581.27
2019-04-18T17:55:16.978Z,100580.96
2019-04-18T17:57:45.114Z,100590.27
2019-04-18T18:00:29.337Z,100585.52
2019-04-18T18:03:26.121Z,100590.25
2019-04-18T18:06:09.508Z,100593.98
2019-04-18T18:08:48.885Z,100592.09
2019-04-18T18:11:25.851Z,100601.61
2019-04-18T18:14:03.033Z,100599.17
2019-04-18T18:16:48.712Z,100594.48
2019-04-18T18:19:32.522Z,100599.60
2019-04-18T18:22:21.670Z,100600.84
2019-04-18T18:24:56.787Z,100601.66
2019-04-18T18:27:34.274Z,100609.72
2019-04-18T18:30:28.548Z,100610.06
2019-04-18T18:32:56.429Z,100609.98
2019-04-18T18:35:37.035Z,100614.53
2019-04-18T18:38:39.180Z,100622.06
2019-04-18T18:41:35.264Z,100623.47
2019-04-18T18:44:21.830Z,100622.27
2019-04-18T18:47:03.344Z,100625.33
2019-04-18T18:49:33.943Z,100625.34
2019-04-18T18:52:05.525Z,100625.91
2019-04-18T18:54:49.999Z,100626.82
2019-04-18T18:57:38.890Z,100633.03
2019-04-18T19:00:12.073Z,100630.17
2019-04-18T19:02:51.565Z,100636.80
2019-04-18T19:05:45.548Z,100630.92
2019-04-18T19:08:26.380Z,100635.83
2019-04-18T19:11:18.460Z,100633.33
2019-04-18T19:13:57.769Z,100635.12
2019-04-18T19:16:34.985Z,100634.78
2019-04-18T19:19:07.363Z,100635.77
2019-04-18T19:22:01.722Z,100635.78
2019-04-18T19:24:43.723Z,100641.44
2019-04-18T19:27:34.112Z,100642.05
2019-04-18T19:30:07.780Z,100641.81
2019-04-18T19:32:53.993Z,100633.37
2019-04-18T19:35:40.346Z,100638.05
2019-04-18T19:38:26.977Z,100638.45
2019-04-18T19:41:09.577Z,100642.23
2019-04-18T19:43:34.696Z,100637.13
2019-04-18T19:46:12.986Z,100637.63
2019-04-18T19:48:58.710Z,100640.80
2019-04-18T19:51:44.829Z,100633.20
2019-04-18T19:54:18.383Z,100640.00
2019-04-18T19:57:02.096Z,100647.52
2019-04-18T19:59:38.906Z,100648.31
2019-04-18T20:02:11.256Z,100648.34
2019-04-18T20:05:03.141Z,100648.41
2019-04-18T20:07:53.203Z,100653.16
2019-04-18T20:10:33.739Z,100653.63
2019-04-18T20:13:15.062Z,100651.58
2019-04-18T20:15:42.716Z,100652.53
2019-04-18T20:18:13.230Z,100643.95
2019-04-18T20:21:03.525Z,100647.45
2019-04-18T20:23:54.547Z,100653.53
2019-04-18T20:26:53.765Z,100654.42
2019-04-18T20:29:48.140Z,100653.56
2019-04-18T20:32:30.441Z,100654.05
2019-04-18T20:38:21.710Z,100655.84
2019-04-18T20:41:26.788Z,100656.36
2019-04-18T20:44:09.974Z,100648.71
2019-04-18T20:46:46.174Z,100654.37
2019-04-18T20:49:34.300Z,100656.09
2019-04-18T20:52:07.349Z,100657.37
2019-04-18T20:55:03.849Z,100655.28
2019-04-18T20:57:30.223Z,100657.02
2019-04-18T21:00:14.704Z,100661.36
2019-04-18T21:02:55.932Z,100662.25
2019-04-18T21:05:31.394Z,100664.44
2019-04-18T21:08:20.035Z,100662.36
2019-04-18T21:10:55.852Z,100667.90
2019-04-18T21:13:37.397Z,100667.09
2019-04-18T21:16:11.834Z,100671.39
2019-04-18T21:18:59.313Z,100675.27
2019-04-18T21:21:49.121Z,100676.16
2019-04-18T21:24:39.667Z,100671.48
2019-04-18T21:27:23.022Z,100671.14
2019-04-18T21:30:07.183Z,100677.58
2019-04-18T21:35:46.603Z,100682.36
2019-04-18T21:38:37.754Z,100692.19
2019-04-18T21:41:06.121Z,100687.50
2019-04-18T21:44:15.521Z,100688.77
2019-04-18T21:46:58.955Z,100681.97
2019-04-18T21:49:42.992Z,100690.09
2019-04-18T21:52:24.604Z,100692.66
2019-04-18T21:58:33.631Z,100693.95
2019-04-18T22:01:39.041Z,100702.94
2019-04-18T22:04:13.453Z,100696.11
2019-04-18T22:07:20.432Z,100692.28
2019-04-18T22:09:56.290Z,100701.70
2019-04-18T22:12:42.901Z,100701.70
2019-04-18T22:15:17.389Z,100699.56
2019-04-18T22:17:59.659Z,100700.84
2019-04-18T22:20:56.783Z,100703.41
2019-04-18T22:23:35.128Z,100703.84
2019-04-18T22:26:14.959Z,100707.23
2019-04-18T22:28:58.918Z,100709.78
2019-04-18T22:31:35.834Z,100708.91
2019-04-18T22:34:28.846Z,100715.30
2019-04-18T22:37:31.395Z,100715.72
2019-04-18T22:40:04.449Z,100716.58
2019-04-18T22:42:46.078Z,100723.42
2019-04-18T22:45:27.634Z,100718.30
2019-04-18T22:48:05.487Z,100719.13
2019-04-18T22:50:48.574Z,100725.11
2019-04-18T22:53:25.373Z,100722.56
2019-04-18T22:56:16.436Z,100716.58
2019-04-18T22:59:14.299Z,100722.58
2019-04-18T23:01:56.922Z,100719.13
2019-04-18T23:04:32.945Z,100714.87
2019-04-18T23:07:15.918Z,100715.72
2019-04-18T23:09:57.186Z,100715.31
2019-04-18T23:12:39.231Z,100714.00
2019-04-18T23:18:43.346Z,100715.27
2019-04-18T23:21:33.365Z,100716.08
2019-04-18T23:24:07.627Z,100718.66
2019-04-18T23:27:00.030Z,100717.39
2019-04-18T23:29:38.921Z,100710.14
2019-04-18T23:32:10.555Z,100713.12
2019-04-18T23:35:00.581Z,100715.66
2019-04-18T23:38:00.798Z,100708.81
2019-04-18T23:40:36.688Z,100709.65
2019-04-18T23:43:23.289Z,100709.64
2019-04-18T23:45:59.323Z,100711.77
2019-04-18T23:48:49.375Z,100716.84
2019-04-18T23:51:42.727Z,100715.92
2019-04-18T23:54:27.537Z,100716.75
2019-04-18T23:57:09.135Z,100714.55
2019-04-18T23:59:48.642Z,100718.37
